BEX weather

RAF Benson
Benson, England, United Kingdom

Public forecast

Using degrees Celsius for public forecast. Weather courtesy of forecast.io.

Current aviation weather report (METAR) for RAF Benson

Retrieved 2019/10/20 07:50 UTC (35 minutes ago):

EGUB 200750Z AUTO 33002KT 9999 // OVC027/// 07/07 Q1010

Aviation forecast (TAF) for RAF Benson

Forecast is more than 12 hours old.

Retrieved 2019/10/19 15:33 UTC (17 hours ago):

TAF EGUB 191424Z 1915/2009 CNL